Time;durP1;ratioP1;P1;durP2;ratioP2;P2;SDS_P1;SDS_P2;PMS_P1;PMS_P2;Temp;Humidity;BMP_temperature;BMP_pressure;BME280_temperature;BME280_humidity;BME280_pressure;Samples;Min_cycle;Max_cycle;Signal;HPM_P1;HPM_P2
2023/05/02 00:01:03;;;;;;;;;;;;;;;11.65;80.70;101956.34;5065974;28;19922;-66
2023/05/02 00:03:29;;;;;;;;;;;;;;;11.60;80.98;101964.78;5062488;28;19917;-66
2023/05/02 00:05:54;;;;;;;;;;;;;;;11.52;81.27;101961.16;5069504;28;19928;-66
2023/05/02 00:08:19;;;;;;;;;;;;;;;11.45;80.95;101966.25;5062945;28;19928;-66
2023/05/02 00:10:44;;;;;;;;;;;;;;;11.41;80.84;101970.19;5061949;28;20500;-66
2023/05/02 00:13:10;;;;;;;;;;;;;;;11.39;81.15;101978.31;5059354;28;19924;-66
2023/05/02 00:15:35;;;;;;;;;;;;;;;11.36;81.82;101977.78;5063968;28;19920;-66
2023/05/02 00:18:00;;;;;;;;;;;;;;;11.33;81.52;101981.59;5070411;28;19912;-66
2023/05/02 00:20:25;;;;;;;;;;;;;;;11.31;81.10;101972.06;5066960;28;20002;-66
2023/05/02 00:22:50;;;;;;;;;;;;;;;11.26;81.12;101977.81;5064069;28;19936;-66
2023/05/02 00:25:16;;;;;;;;;;;;;;;11.23;81.70;101979.94;5070279;28;19916;-66
2023/05/02 00:27:42;;;;;;;;;;;;;;;11.14;82.25;101977.19;5064320;28;19923;-66
2023/05/02 00:30:07;;;;;;;;;;;;;;;11.11;82.02;101982.78;5059681;28;19927;-66
2023/05/02 00:32:32;;;;;;;;;;;;;;;11.06;82.20;101982.41;5068554;28;19916;-66
2023/05/02 00:34:58;;;;;;;;;;;;;;;11.02;82.10;101982.84;5066852;28;20408;-66
2023/05/02 00:37:25;;;;;;;;;;;;;;;10.99;82.00;101985.78;5065335;28;19916;-66
2023/05/02 00:39:50;;;;;;;;;;;;;;;10.96;82.25;101986.88;5067676;28;20406;-66
2023/05/02 00:42:15;;;;;;;;;;;;;;;10.95;82.14;101981.72;5068995;28;19967;-66
2023/05/02 00:44:41;;;;;;;;;;;;;;;10.97;82.24;101990.38;5063824;28;19996;-66
2023/05/02 00:47:06;;;;;;;;;;;;;;;11.00;81.95;101988.31;5061198;28;20000;-66
2023/05/02 00:49:32;;;;;;;;;;;;;;;11.03;82.02;101988.00;5060208;28;20343;-66
2023/05/02 00:51:57;;;;;;;;;;;;;;;10.99;81.99;101983.97;5072917;28;19925;-66
2023/05/02 00:54:22;;;;;;;;;;;;;;;10.95;82.21;101984.38;5060636;28;19917;-66
2023/05/02 00:56:48;;;;;;;;;;;;;;;10.92;82.15;101980.19;5061232;28;19928;-66
2023/05/02 00:59:13;;;;;;;;;;;;;;;10.83;82.19;101984.56;5072294;28;19967;-66
2023/05/02 01:01:48;;;;;;;;;;;;;;;10.80;82.04;101987.50;5067053;28;19944;-66
2023/05/02 01:04:22;;;;;;;;;;;;;;;10.77;82.45;101997.59;5065261;28;19913;-66
2023/05/02 01:06:56;;;;;;;;;;;;;;;10.74;82.29;101993.41;5073347;28;19955;-66
2023/05/02 01:09:22;;;;;;;;;;;;;;;10.74;82.53;101993.41;5067131;28;19916;-66
2023/05/02 01:11:52;;;;;;;;;;;;;;;10.74;82.61;101998.72;5061503;28;20389;-66
2023/05/02 01:14:19;;;;;;;;;;;;;;;10.71;82.40;101995.50;5060635;28;19924;-66
2023/05/02 01:16:45;;;;;;;;;;;;;;;10.69;82.26;101994.78;5056130;28;20006;-66
2023/05/02 01:19:30;;;;;;;;;;;;;;;10.69;82.42;101987.66;5065834;28;20015;-66
2023/05/02 01:21:56;;;;;;;;;;;;;;;10.70;82.30;101981.38;5065083;28;20374;-66
2023/05/02 01:24:25;;;;;;;;;;;;;;;10.69;82.02;101984.16;5068356;28;19928;-66
2023/05/02 01:27:01;;;;;;;;;;;;;;;10.66;82.03;101987.94;5064187;28;19924;-66
2023/05/02 01:29:26;;;;;;;;;;;;;;;10.65;82.19;101980.97;5059321;28;20366;-66
2023/05/02 01:31:53;;;;;;;;;;;;;;;10.68;82.40;101988.63;5065909;28;19956;-66
2023/05/02 01:34:19;;;;;;;;;;;;;;;10.66;82.40;101993.25;5064665;28;19921;-66
2023/05/02 01:36:46;;;;;;;;;;;;;;;10.68;82.48;101995.78;5067402;28;20396;-66
2023/05/02 01:39:13;;;;;;;;;;;;;;;10.65;82.93;101999.56;5061225;28;19920;-66
2023/05/02 01:41:39;;;;;;;;;;;;;;;10.64;82.87;102002.34;5058878;28;19916;-66
2023/05/02 01:44:06;;;;;;;;;;;;;;;10.60;82.58;101996.50;5050996;28;19921;-66
2023/05/02 01:46:33;;;;;;;;;;;;;;;10.58;82.88;102003.75;5060710;28;19916;-66
2023/05/02 01:49:00;;;;;;;;;;;;;;;10.61;82.52;102002.63;5064507;28;19924;-66
2023/05/02 01:51:31;;;;;;;;;;;;;;;10.58;82.93;102013.56;5061004;28;19920;-66
2023/05/02 01:53:58;;;;;;;;;;;;;;;10.54;83.07;102013.00;5062285;28;20405;-66
2023/05/02 01:56:24;;;;;;;;;;;;;;;10.54;83.28;102018.31;5063171;28;19928;-66
2023/05/02 01:58:51;;;;;;;;;;;;;;;10.54;83.71;102010.34;5064284;28;19925;-66
2023/05/02 02:01:17;;;;;;;;;;;;;;;10.56;84.19;102013.69;5055416;28;20057;-66
2023/05/02 02:03:43;;;;;;;;;;;;;;;10.57;84.16;102018.03;5058308;28;20434;-66
2023/05/02 02:06:09;;;;;;;;;;;;;;;10.57;84.80;102025.16;5057970;28;19917;-66
2023/05/02 02:08:34;;;;;;;;;;;;;;;10.56;84.63;102026.97;5061810;28;19928;-66
2023/05/02 02:11:03;;;;;;;;;;;;;;;10.56;85.01;102029.63;5060783;28;20007;-66
2023/05/02 02:13:36;;;;;;;;;;;;;;;10.58;84.89;102035.66;5054522;28;19995;-66
2023/05/02 02:16:03;;;;;;;;;;;;;;;10.59;85.16;102041.78;5059558;28;19924;-66
2023/05/02 02:18:28;;;;;;;;;;;;;;;10.61;85.40;102034.53;5056813;28;20392;-66
2023/05/02 02:20:54;;;;;;;;;;;;;;;10.60;85.44;102036.34;5066711;28;19916;-66
2023/05/02 02:23:20;;;;;;;;;;;;;;;10.61;85.55;102039.84;5053783;28;19921;-66
2023/05/02 02:25:45;;;;;;;;;;;;;;;10.61;85.57;102043.31;5053025;28;19925;-66
2023/05/02 02:28:11;;;;;;;;;;;;;;;10.57;85.50;102039.28;5065894;28;19920;-66
2023/05/02 02:30:36;;;;;;;;;;;;;;;10.58;85.61;102040.13;5068038;28;19962;-66
2023/05/02 02:33:01;;;;;;;;;;;;;;;10.59;85.49;102041.78;5066774;28;20004;-66
2023/05/02 02:35:32;;;;;;;;;;;;;;;10.63;85.25;102044.03;5065862;28;20399;-66
2023/05/02 02:38:16;;;;;;;;;;;;;;;10.61;85.66;102048.63;5064662;28;20421;-66
2023/05/02 02:40:44;;;;;;;;;;;;;;;10.62;86.10;102044.16;5057662;28;19920;-66
2023/05/02 02:43:19;;;;;;;;;;;;;;;10.64;85.99;102051.00;5058344;28;19932;-66
2023/05/02 02:45:57;;;;;;;;;;;;;;;10.67;85.65;102048.06;5055589;28;19917;-66
2023/05/02 02:48:42;;;;;;;;;;;;;;;10.71;85.80;102046.00;5053835;28;20290;-66
2023/05/02 02:51:19;;;;;;;;;;;;;;;10.73;85.83;102046.69;5057206;28;19927;-66
2023/05/02 02:54:01;;;;;;;;;;;;;;;10.72;85.69;102051.16;5064053;28;20382;-66
2023/05/02 02:56:28;;;;;;;;;;;;;;;10.65;85.88;102041.22;5062672;28;19932;-66
2023/05/02 02:59:04;;;;;;;;;;;;;;;10.71;86.09;102057.47;5069457;28;19917;-66
2023/05/02 03:01:31;;;;;;;;;;;;;;;10.72;86.02;102059.13;5053408;28;19939;-66
2023/05/02 03:03:56;;;;;;;;;;;;;;;10.74;85.63;102059.00;5064023;28;19924;-66
2023/05/02 03:06:22;;;;;;;;;;;;;;;10.74;85.66;102066.97;5056946;28;19996;-66
2023/05/02 03:08:47;;;;;;;;;;;;;;;10.73;86.44;102074.09;5056235;28;20040;-66
2023/05/02 03:11:12;;;;;;;;;;;;;;;10.71;86.53;102068.09;5068171;28;19913;-66
2023/05/02 03:13:38;;;;;;;;;;;;;;;10.68;86.83;102073.66;5060777;28;20010;-66
2023/05/02 03:16:21;;;;;;;;;;;;;;;10.67;86.66;102085.25;5057674;28;20040;-66
2023/05/02 03:18:47;;;;;;;;;;;;;;;10.67;87.59;102087.06;5065450;28;19916;-66
2023/05/02 03:21:12;;;;;;;;;;;;;;;10.68;87.54;102092.25;5064278;28;19913;-66
2023/05/02 03:23:37;;;;;;;;;;;;;;;10.69;87.35;102095.75;5062853;28;19916;-66
2023/05/02 03:26:02;;;;;;;;;;;;;;;10.71;87.20;102092.00;5060994;28;19997;-66
2023/05/02 03:28:27;;;;;;;;;;;;;;;10.73;87.07;102100.66;5067893;28;20500;-66
2023/05/02 03:30:53;;;;;;;;;;;;;;;10.75;86.89;102103.19;5059933;28;19916;-66
2023/05/02 03:33:19;;;;;;;;;;;;;;;10.78;86.99;102106.38;5065404;28;19917;-66
2023/05/02 03:35:44;;;;;;;;;;;;;;;10.79;86.74;102112.53;5070217;28;19928;-66
2023/05/02 03:38:10;;;;;;;;;;;;;;;10.81;86.51;102114.06;5069705;28;19912;-66
2023/05/02 03:40:35;;;;;;;;;;;;;;;10.82;86.58;102113.09;5067861;28;20467;-66
2023/05/02 03:43:00;;;;;;;;;;;;;;;10.81;86.31;102114.06;5069193;28;20034;-66
2023/05/02 03:45:25;;;;;;;;;;;;;;;10.80;86.29;102116.88;5071675;28;20632;-66
2023/05/02 03:47:50;;;;;;;;;;;;;;;10.78;86.14;102117.03;5066474;28;19919;-66
2023/05/02 03:50:16;;;;;;;;;;;;;;;10.79;85.87;102118.69;5066251;28;20282;-66
2023/05/02 03:52:41;;;;;;;;;;;;;;;10.79;85.55;102124.00;5059853;28;20007;-66
2023/05/02 03:55:06;;;;;;;;;;;;;;;10.78;85.23;102127.66;5063781;28;19917;-66
2023/05/02 03:57:32;;;;;;;;;;;;;;;10.75;84.95;102124.44;5060447;28;19950;-66
2023/05/02 03:59:57;;;;;;;;;;;;;;;10.69;84.24;102131.13;5069961;28;20348;-66
2023/05/02 04:02:22;;;;;;;;;;;;;;;10.63;83.78;102138.81;5070973;28;20016;-66
2023/05/02 04:04:47;;;;;;;;;;;;;;;10.57;83.02;102145.53;5066952;28;19952;-66
2023/05/02 04:07:17;;;;;;;;;;;;;;;10.54;82.84;102146.66;5064803;28;19974;-66
2023/05/02 04:09:42;;;;;;;;;;;;;;;10.49;82.61;102151.53;5057441;28;19920;-66
2023/05/02 04:12:07;;;;;;;;;;;;;;;10.48;82.24;102157.00;5059668;28;19924;-66
2023/05/02 04:14:32;;;;;;;;;;;;;;;10.45;82.34;102158.09;5063391;28;19924;-66
2023/05/02 04:16:58;;;;;;;;;;;;;;;10.40;81.60;102157.66;5066370;28;19921;-66
2023/05/02 04:19:23;;;;;;;;;;;;;;;10.36;81.42;102153.59;5068732;28;19924;-66
2023/05/02 04:21:48;;;;;;;;;;;;;;;10.29;80.96;102156.94;5064726;28;19950;-66
2023/05/02 04:24:13;;;;;;;;;;;;;;;10.24;80.61;102170.63;5059056;28;19923;-66
2023/05/02 04:26:38;;;;;;;;;;;;;;;10.18;80.75;102165.84;5066523;28;20337;-66
2023/05/02 04:29:04;;;;;;;;;;;;;;;10.14;80.50;102175.88;5063794;28;20439;-66
2023/05/02 04:31:32;;;;;;;;;;;;;;;10.11;80.29;102175.28;5061173;28;19920;-66
2023/05/02 04:33:57;;;;;;;;;;;;;;;10.11;80.25;102180.59;5064681;28;19932;-66
2023/05/02 04:36:23;;;;;;;;;;;;;;;10.08;80.05;102189.69;5057657;28;19916;-66
2023/05/02 04:38:48;;;;;;;;;;;;;;;10.04;80.19;102182.97;5069806;28;19995;-66
2023/05/02 04:41:14;;;;;;;;;;;;;;;10.04;79.69;102195.38;5068322;28;20042;-66
2023/05/02 04:43:39;;;;;;;;;;;;;;;10.03;79.63;102199.84;5069047;28;19924;-66
2023/05/02 04:46:04;;;;;;;;;;;;;;;10.01;79.39;102193.84;5064429;28;19916;-66
2023/05/02 04:48:29;;;;;;;;;;;;;;;10.01;79.45;102200.97;5064778;28;19950;-66
2023/05/02 04:50:54;;;;;;;;;;;;;;;10.01;79.62;102204.47;5057928;28;19920;-66
2023/05/02 04:53:20;;;;;;;;;;;;;;;10.01;79.23;102215.06;5051029;28;19919;-66
2023/05/02 04:55:45;;;;;;;;;;;;;;;10.02;79.40;102222.06;5067978;28;19916;-66
2023/05/02 04:58:11;;;;;;;;;;;;;;;10.03;79.23;102222.91;5068406;28;19943;-66
2023/05/02 05:00:36;;;;;;;;;;;;;;;10.04;79.21;102221.94;5062970;28;19916;-66
2023/05/02 05:03:02;;;;;;;;;;;;;;;10.04;79.02;102224.59;5067087;28;20384;-66
2023/05/02 05:05:27;;;;;;;;;;;;;;;10.01;78.70;102228.34;5068017;28;19978;-66
2023/05/02 05:07:52;;;;;;;;;;;;;;;10.02;78.56;102227.38;5065540;28;20546;-66
2023/05/02 05:10:17;;;;;;;;;;;;;;;10.05;78.76;102237.72;5054397;28;19916;-66
2023/05/02 05:12:43;;;;;;;;;;;;;;;10.08;78.50;102228.66;5068516;28;19916;-66
2023/05/02 05:15:08;;;;;;;;;;;;;;;10.08;78.38;102236.63;5065436;28;19928;-66
2023/05/02 05:17:35;;;;;;;;;;;;;;;10.11;78.35;102250.44;5064977;28;20382;-66
2023/05/02 05:20:00;;;;;;;;;;;;;;;10.15;77.80;102240.44;5067212;28;19917;-66
2023/05/02 05:22:25;;;;;;;;;;;;;;;10.11;77.47;102245.16;5064465;28;19920;-66
2023/05/02 05:24:53;;;;;;;;;;;;;;;10.09;77.01;102247.09;5059187;28;19925;-66
2023/05/02 05:27:19;;;;;;;;;;;;;;;10.08;76.68;102258.69;5064871;28;19920;-66
2023/05/02 05:29:44;;;;;;;;;;;;;;;10.06;76.72;102257.97;5060341;28;19920;-66
2023/05/02 05:32:09;;;;;;;;;;;;;;;10.05;76.48;102260.78;5064266;28;19939;-66
2023/05/02 05:34:34;;;;;;;;;;;;;;;10.03;76.14;102268.03;5068594;28;19912;-66
2023/05/02 05:36:59;;;;;;;;;;;;;;;10.07;76.26;102264.13;5058197;28;20000;-66
2023/05/02 05:39:25;;;;;;;;;;;;;;;10.11;76.36;102271.69;5056612;28;19928;-66
2023/05/02 05:41:50;;;;;;;;;;;;;;;10.14;75.99;102267.97;5059570;28;19965;-66
2023/05/02 05:44:15;;;;;;;;;;;;;;;10.12;75.80;102278.72;5067777;28;20374;-66
2023/05/02 05:46:40;;;;;;;;;;;;;;;10.20;75.77;102272.72;5058313;28;20011;-66
2023/05/02 05:49:06;;;;;;;;;;;;;;;10.27;75.99;102281.03;5063644;28;19917;-66
2023/05/02 05:51:31;;;;;;;;;;;;;;;10.34;75.88;102282.16;5064184;28;19948;-66
2023/05/02 05:53:56;;;;;;;;;;;;;;;10.36;75.26;102288.19;5066829;28;20149;-66
2023/05/02 05:56:22;;;;;;;;;;;;;;;10.37;75.13;102287.22;5059615;28;19917;-66
2023/05/02 05:58:47;;;;;;;;;;;;;;;10.36;74.90;102291.69;5069257;28;19948;-66
2023/05/02 06:01:12;;;;;;;;;;;;;;;10.37;75.13;102298.66;5061482;28;20338;-66
2023/05/02 06:03:37;;;;;;;;;;;;;;;10.43;75.02;102300.81;5052714;28;20070;-66
2023/05/02 06:06:03;;;;;;;;;;;;;;;10.48;75.15;102305.72;5060668;28;19920;-66
2023/05/02 06:08:28;;;;;;;;;;;;;;;10.47;74.83;102315.50;5057925;28;19924;-66
2023/05/02 06:10:53;;;;;;;;;;;;;;;10.46;75.22;102315.66;5059319;28;19913;-66
2023/05/02 06:13:18;;;;;;;;;;;;;;;10.46;75.11;102311.16;5061377;28;19924;-66
2023/05/02 06:15:44;;;;;;;;;;;;;;;10.46;74.87;102316.47;5059216;28;19927;-66
2023/05/02 06:18:09;;;;;;;;;;;;;;;10.48;75.01;102316.34;5054985;28;19931;-66
2023/05/02 06:20:35;;;;;;;;;;;;;;;10.52;75.06;102325.72;5057844;28;20506;-66
2023/05/02 06:23:01;;;;;;;;;;;;;;;10.54;74.84;102331.75;5061065;28;19948;-66
2023/05/02 06:25:26;;;;;;;;;;;;;;;10.56;74.88;102335.09;5053993;28;20290;-66
2023/05/02 06:27:51;;;;;;;;;;;;;;;10.59;74.77;102334.84;5058953;28;19967;-66
2023/05/02 06:30:16;;;;;;;;;;;;;;;10.66;74.94;102343.09;5058629;28;19929;-66
2023/05/02 06:32:42;;;;;;;;;;;;;;;10.70;74.99;102355.16;5063657;28;19916;-66
2023/05/02 06:35:08;;;;;;;;;;;;;;;10.72;74.56;102355.88;5064766;28;19939;-66
2023/05/02 06:37:36;;;;;;;;;;;;;;;10.73;74.94;102355.75;5065218;28;19921;-66
2023/05/02 06:40:02;;;;;;;;;;;;;;;10.78;74.55;102364.16;5065713;28;19916;-65
2023/05/02 06:42:27;;;;;;;;;;;;;;;10.84;74.85;102358.28;5066634;28;19931;-65
2023/05/02 06:44:52;;;;;;;;;;;;;;;10.91;74.79;102366.56;5061709;28;19916;-66
2023/05/02 06:47:17;;;;;;;;;;;;;;;10.96;74.56;102374.13;5058640;28;20370;-65
2023/05/02 06:49:42;;;;;;;;;;;;;;;10.98;74.57;102383.63;5059389;28;19912;-65
2023/05/02 06:52:08;;;;;;;;;;;;;;;11.01;74.33;102385.22;5058894;28;19921;-65
2023/05/02 06:54:33;;;;;;;;;;;;;;;11.04;74.45;102390.25;5060823;28;19916;-65
2023/05/02 06:56:58;;;;;;;;;;;;;;;11.03;74.03;102380.59;5063381;28;19929;-65
2023/05/02 06:59:23;;;;;;;;;;;;;;;11.03;74.06;102386.75;5068861;28;19916;-65
2023/05/02 07:01:48;;;;;;;;;;;;;;;11.06;74.30;102390.94;5062798;28;19916;-65
2023/05/02 07:04:14;;;;;;;;;;;;;;;11.07;74.19;102388.16;5070482;28;19969;-65
2023/05/02 07:06:39;;;;;;;;;;;;;;;11.09;74.14;102402.16;5064379;28;19920;-65
2023/05/02 07:09:04;;;;;;;;;;;;;;;11.12;73.65;102401.03;5072070;28;20456;-64
2023/05/02 07:11:29;;;;;;;;;;;;;;;11.19;73.86;102396.84;5071460;28;20377;-65
2023/05/02 07:13:54;;;;;;;;;;;;;;;11.26;73.76;102397.13;5062444;28;20015;-65
2023/05/02 07:16:20;;;;;;;;;;;;;;;11.35;73.69;102402.50;5062890;28;20003;-65
2023/05/02 07:18:45;;;;;;;;;;;;;;;11.49;73.47;102414.53;5071118;28;19913;-65
2023/05/02 07:21:10;;;;;;;;;;;;;;;11.60;73.04;102417.09;5068661;28;20420;-65
2023/05/02 07:23:36;;;;;;;;;;;;;;;11.62;72.14;102423.13;5070279;28;19948;-65
2023/05/02 07:26:01;;;;;;;;;;;;;;;11.63;71.49;102432.78;5071241;28;19916;-65
2023/05/02 07:28:26;;;;;;;;;;;;;;;11.58;70.87;102427.03;5071928;28;19916;-65
2023/05/02 07:30:51;;;;;;;;;;;;;;;11.50;70.83;102432.19;5064352;28;20019;-66
2023/05/02 07:33:17;;;;;;;;;;;;;;;11.41;69.97;102433.03;5059469;28;19919;-65
2023/05/02 07:35:42;;;;;;;;;;;;;;;11.35;69.40;102438.91;5069423;28;19920;-65
2023/05/02 07:38:07;;;;;;;;;;;;;;;11.30;69.18;102441.13;5069689;28;19951;-66
2023/05/02 07:40:32;;;;;;;;;;;;;;;11.25;69.55;102446.81;5070994;28;19952;-65
2023/05/02 07:42:59;;;;;;;;;;;;;;;11.20;69.08;102453.53;5071380;28;19949;-65
2023/05/02 07:45:25;;;;;;;;;;;;;;;11.10;68.57;102451.69;5067932;28;19923;-65
2023/05/02 07:47:50;;;;;;;;;;;;;;;11.06;68.43;102455.59;5068364;28;19924;-65
2023/05/02 07:50:15;;;;;;;;;;;;;;;11.07;68.29;102456.44;5068135;28;19916;-65
2023/05/02 07:52:40;;;;;;;;;;;;;;;11.09;68.13;102454.50;5070694;28;20598;-65
2023/05/02 07:55:06;;;;;;;;;;;;;;;11.15;68.57;102459.25;5071514;28;19955;-65
2023/05/02 07:57:31;;;;;;;;;;;;;;;11.24;68.75;102460.25;5064435;28;20363;-65
2023/05/02 07:59:56;;;;;;;;;;;;;;;11.32;68.49;102463.09;5067290;28;19927;-65
2023/05/02 08:02:22;;;;;;;;;;;;;;;11.40;68.62;102460.59;5070442;28;19926;-65
2023/05/02 08:04:48;;;;;;;;;;;;;;;11.46;67.89;102462.72;5064435;28;19913;-65
2023/05/02 08:07:13;;;;;;;;;;;;;;;11.53;67.64;102466.50;5067781;28;19936;-65
2023/05/02 08:09:38;;;;;;;;;;;;;;;11.61;67.71;102471.16;5067591;28;19920;-65
2023/05/02 08:12:04;;;;;;;;;;;;;;;11.69;66.87;102468.66;5054601;28;19938;-65
2023/05/02 08:14:29;;;;;;;;;;;;;;;11.77;66.25;102466.97;5069867;28;19916;-65
2023/05/02 08:16:54;;;;;;;;;;;;;;;11.90;66.11;102474.72;5069135;28;19916;-65
2023/05/02 08:19:21;;;;;;;;;;;;;;;12.03;66.66;102471.78;5070425;28;22289;-66
2023/05/02 08:21:46;;;;;;;;;;;;;;;12.08;65.62;102475.69;5064535;28;19922;-65
2023/05/02 08:24:11;;;;;;;;;;;;;;;12.18;64.91;102485.53;5071031;28;19916;-65
2023/05/02 08:26:36;;;;;;;;;;;;;;;12.24;64.45;102480.47;5061601;28;19939;-65
2023/05/02 08:29:03;;;;;;;;;;;;;;;12.31;63.87;102489.56;5070281;28;19951;-65
2023/05/02 08:31:28;;;;;;;;;;;;;;;12.39;64.01;102483.53;5069742;28;20019;-65
2023/05/02 08:33:53;;;;;;;;;;;;;;;12.48;63.95;102485.34;5067815;28;20004;-65
2023/05/02 08:36:18;;;;;;;;;;;;;;;12.56;64.09;102496.13;5066314;28;19921;-65
2023/05/02 08:38:44;;;;;;;;;;;;;;;12.61;63.63;102498.38;5069966;28;19916;-65
2023/05/02 08:41:10;;;;;;;;;;;;;;;12.62;63.08;102487.56;5065554;28;19959;-65
2023/05/02 08:43:36;;;;;;;;;;;;;;;12.64;62.14;102496.25;5060163;28;19917;-65
2023/05/02 08:46:03;;;;;;;;;;;;;;;12.75;62.09;102495.28;5068697;28;19948;-65
2023/05/02 08:48:30;;;;;;;;;;;;;;;12.93;61.31;102495.34;5062075;28;19993;-66
2023/05/02 08:50:56;;;;;;;;;;;;;;;12.97;60.15;102504.72;5062527;28;19913;-66
2023/05/02 08:53:22;;;;;;;;;;;;;;;12.88;59.25;102506.44;5064166;28;20034;-65
2023/05/02 08:55:48;;;;;;;;;;;;;;;12.80;58.70;102510.81;5063708;28;20325;-65
2023/05/02 08:58:13;;;;;;;;;;;;;;;12.79;58.83;102506.47;5065816;28;20531;-66
2023/05/02 09:00:40;;;;;;;;;;;;;;;12.82;58.68;102514.19;5060346;28;19978;-65
2023/05/02 09:03:05;;;;;;;;;;;;;;;12.90;59.17;102516.97;5057659;28;19931;-66
2023/05/02 09:05:32;;;;;;;;;;;;;;;12.98;59.21;102522.41;5056684;28;20316;-66
2023/05/02 09:07:57;;;;;;;;;;;;;;;13.03;59.22;102523.69;5060687;28;20382;-66
2023/05/02 09:10:25;;;;;;;;;;;;;;;13.10;59.14;102537.25;5054794;28;19945;-66
2023/05/02 09:12:50;;;;;;;;;;;;;;;13.17;59.07;102542.84;5057034;28;19999;-66
2023/05/02 09:15:16;;;;;;;;;;;;;;;13.17;58.27;102535.72;5058820;28;19999;-66
2023/05/02 09:17:42;;;;;;;;;;;;;;;13.10;57.66;102544.44;5060741;28;19948;-66
2023/05/02 09:20:08;;;;;;;;;;;;;;;13.06;58.03;102543.88;5061611;28;19938;-66
2023/05/02 09:22:34;;;;;;;;;;;;;;;13.03;57.93;102547.69;5063057;28;19966;-66
2023/05/02 09:24:59;;;;;;;;;;;;;;;13.03;58.52;102549.50;5060872;28;19920;-65
2023/05/02 09:27:26;;;;;;;;;;;;;;;13.08;58.70;102554.41;5064150;28;19916;-66
2023/05/02 09:29:51;;;;;;;;;;;;;;;13.15;59.07;102567.00;5055924;28;20007;-66
2023/05/02 09:32:16;;;;;;;;;;;;;;;13.14;58.80;102557.31;5050319;28;20016;-66
2023/05/02 09:35:01;;;;;;;;;;;;;;;13.21;59.25;102562.94;5056495;28;19916;-66
2023/05/02 09:37:33;;;;;;;;;;;;;;;13.45;58.81;102554.44;5057296;28;19925;-65
2023/05/02 09:40:05;;;;;;;;;;;;;;;13.70;57.79;102551.06;5057285;28;19917;-65
2023/05/02 09:42:31;;;;;;;;;;;;;;;13.80;56.61;102557.19;5057370;28;19920;-65
2023/05/02 09:44:56;;;;;;;;;;;;;;;13.85;56.81;102570.09;5059229;28;19963;-65
2023/05/02 09:47:27;;;;;;;;;;;;;;;13.91;56.52;102570.34;5059875;28;19959;-66
2023/05/02 09:49:52;;;;;;;;;;;;;;;13.89;56.39;102584.84;5071105;28;19920;-66
2023/05/02 09:52:20;;;;;;;;;;;;;;;13.82;55.97;102575.72;5069589;28;21680;-66
2023/05/02 09:54:46;;;;;;;;;;;;;;;13.72;55.82;102580.28;5062371;28;19916;-65
2023/05/02 09:57:11;;;;;;;;;;;;;;;13.60;55.16;102583.16;5062817;28;19946;-65
2023/05/02 09:59:37;;;;;;;;;;;;;;;13.54;55.63;102582.91;5064184;28;19917;-66
2023/05/02 10:02:03;;;;;;;;;;;;;;;13.57;55.51;102582.59;5055806;28;20409;-65
2023/05/02 10:04:30;;;;;;;;;;;;;;;13.61;55.32;102584.84;5065398;28;20326;-65
2023/05/02 10:06:56;;;;;;;;;;;;;;;13.64;55.24;102589.06;5062058;28;20006;-65
2023/05/02 10:09:21;;;;;;;;;;;;;;;13.65;54.93;102585.38;5058288;28;19916;-65
2023/05/02 10:11:49;;;;;;;;;;;;;;;13.69;54.62;102588.59;5057205;28;19924;-65
2023/05/02 10:14:15;;;;;;;;;;;;;;;13.71;54.48;102589.28;5065288;28;19923;-65
2023/05/02 10:16:46;;;;;;;;;;;;;;;13.73;54.85;102585.47;5055920;28;19917;-66
2023/05/02 10:19:18;;;;;;;;;;;;;;;13.74;54.00;102599.66;5064099;28;19924;-65
2023/05/02 10:21:43;;;;;;;;;;;;;;;13.69;52.90;102593.94;5055753;28;19913;-66
2023/05/02 10:24:09;;;;;;;;;;;;;;;13.61;53.06;102590.19;5049330;28;20124;-66
2023/05/02 10:26:35;;;;;;;;;;;;;;;13.73;53.76;102587.31;5061122;28;19939;-66
2023/05/02 10:29:00;;;;;;;;;;;;;;;13.98;53.81;102575.94;5057144;28;19966;-66
2023/05/02 10:31:26;;;;;;;;;;;;;;;14.27;54.04;102586.41;5053018;28;20385;-66
2023/05/02 10:33:54;;;;;;;;;;;;;;;14.43;52.86;102597.28;5052543;28;19927;-66
2023/05/02 10:36:22;;;;;;;;;;;;;;;14.49;52.44;102599.38;5053709;28;19928;-65
2023/05/02 10:38:47;;;;;;;;;;;;;;;14.49;51.61;102602.03;5055319;28;20309;-65
2023/05/02 10:41:15;;;;;;;;;;;;;;;14.50;51.78;102598.38;5052251;28;19923;-65
2023/05/02 10:43:40;;;;;;;;;;;;;;;14.62;52.09;102600.78;5057408;28;19936;-66
2023/05/02 10:46:25;;;;;;;;;;;;;;;14.72;51.87;102597.03;5053597;28;20383;-66
2023/05/02 10:49:26;;;;;;;;;;;;;;;14.92;51.53;102602.22;5058636;28;19924;-65
2023/05/02 10:51:51;;;;;;;;;;;;;;;15.10;51.09;102595.00;5018649;28;19951;-66
2023/05/02 10:54:20;;;;;;;;;;;;;;;15.38;51.46;102588.47;5052084;28;19996;-66
2023/05/02 10:57:02;;;;;;;;;;;;;;;15.67;50.58;102589.97;5059944;28;19943;-65
2023/05/02 10:59:28;;;;;;;;;;;;;;;15.70;50.13;102597.69;5056042;28;20562;-65
2023/05/02 11:01:53;;;;;;;;;;;;;;;15.66;49.56;102602.53;5055848;28;19932;-66
2023/05/02 11:04:18;;;;;;;;;;;;;;;15.60;49.50;102605.81;5049460;28;20415;-65
2023/05/02 11:06:55;;;;;;;;;;;;;;;15.56;49.04;102612.47;5053270;28;20011;-65
2023/05/02 11:09:21;;;;;;;;;;;;;;;15.43;48.06;102612.91;5059477;28;19928;-65
2023/05/02 11:11:51;;;;;;;;;;;;;;;15.38;48.07;102614.41;5066901;28;20576;-65
2023/05/02 11:14:29;;;;;;;;;;;;;;;15.42;48.55;102621.94;5064045;28;19916;-65
2023/05/02 11:16:58;;;;;;;;;;;;;;;15.65;48.76;102610.72;5064502;28;19927;-65
2023/05/02 11:19:24;;;;;;;;;;;;;;;15.92;48.50;102615.03;5067700;28;19966;-65
2023/05/02 11:21:49;;;;;;;;;;;;;;;16.06;47.68;102615.22;5062121;28;20480;-66
2023/05/02 11:24:33;;;;;;;;;;;;;;;16.20;47.63;102616.44;5066529;28;19913;-65
2023/05/02 11:27:17;;;;;;;;;;;;;;;16.28;47.04;102620.97;5067102;28;19912;-65
2023/05/02 11:29:52;;;;;;;;;;;;;;;16.14;45.76;102614.38;5065878;28;20367;-65
2023/05/02 11:32:17;;;;;;;;;;;;;;;15.99;45.23;102618.72;5066425;28;19951;-65
2023/05/02 11:34:43;;;;;;;;;;;;;;;15.88;45.10;102621.69;5065925;28;19948;-65
2023/05/02 11:37:12;;;;;;;;;;;;;;;15.84;45.47;102612.28;5059839;28;19923;-65
2023/05/02 11:39:37;;;;;;;;;;;;;;;15.89;45.95;102612.63;5064267;28;19946;-66
2023/05/02 11:42:02;;;;;;;;;;;;;;;15.84;44.91;102609.59;5066663;28;20374;-65
2023/05/02 11:44:27;;;;;;;;;;;;;;;15.80;45.20;102609.09;5064232;28;19916;-65
2023/05/02 11:46:52;;;;;;;;;;;;;;;15.78;45.20;102611.09;5068745;28;19924;-65
2023/05/02 11:49:18;;;;;;;;;;;;;;;15.76;45.24;102608.59;5060855;28;20325;-66
2023/05/02 11:51:43;;;;;;;;;;;;;;;15.84;45.49;102618.47;5060042;28;19999;-65
2023/05/02 11:54:12;;;;;;;;;;;;;;;15.83;44.97;102624.00;5060555;28;19917;-66
2023/05/02 11:56:37;;;;;;;;;;;;;;;15.67;43.98;102612.25;5066492;28;19981;-65
2023/05/02 11:59:03;;;;;;;;;;;;;;;15.68;44.23;102621.09;5076163;28;19924;-65
2023/05/02 12:01:29;;;;;;;;;;;;;;;15.88;43.96;102608.28;5065967;28;20034;-65
2023/05/02 12:04:00;;;;;;;;;;;;;;;16.06;43.94;102614.38;5067648;28;19916;-66
2023/05/02 12:06:25;;;;;;;;;;;;;;;16.30;44.28;102627.00;5059595;28;19920;-65
2023/05/02 12:09:04;;;;;;;;;;;;;;;16.53;44.02;102622.69;5064692;28;19935;-65
2023/05/02 12:11:30;;;;;;;;;;;;;;;16.77;43.84;102619.22;5055949;28;20534;-65
2023/05/02 12:13:55;;;;;;;;;;;;;;;16.85;43.50;102621.06;5060156;28;19916;-65
2023/05/02 12:16:20;;;;;;;;;;;;;;;16.91;43.25;102631.94;5064497;28;19921;-65
2023/05/02 12:18:46;;;;;;;;;;;;;;;16.87;43.43;102630.63;5064439;28;20485;-65
2023/05/02 12:21:11;;;;;;;;;;;;;;;16.83;43.30;102640.00;5057967;28;20058;-65
2023/05/02 12:23:38;;;;;;;;;;;;;;;16.84;43.67;102633.63;5066912;28;20019;-66
2023/05/02 12:26:20;;;;;;;;;;;;;;;17.02;43.14;102628.91;5063576;28;19917;-66
2023/05/02 12:28:53;;;;;;;;;;;;;;;17.15;42.71;102641.00;5060543;28;19919;-66
2023/05/02 12:31:18;;;;;;;;;;;;;;;17.17;42.65;102636.28;5050907;28;20000;-66
2023/05/02 12:33:46;;;;;;;;;;;;;;;17.26;42.66;102646.84;5056901;28;20015;-66